Time;durP1;ratioP1;P1;durP2;ratioP2;P2;SDS_P1;SDS_P2;PMS_P1;PMS_P2;Temp;Humidity;BMP_temperature;BMP_pressure;BME280_temperature;BME280_humidity;BME280_pressure;Samples;Min_cycle;Max_cycle;Signal;HPM_P1;HPM_P2
2022/08/16 00:00:40;;;;;;;;;;;;;;;23.62;100.00;98027.13;5073319;28;19928;-80
2022/08/16 00:03:09;;;;;;;;;;;;;;;23.88;100.00;98028.09;5073190;28;19935;-80
2022/08/16 00:05:36;;;;;;;;;;;;;;;23.57;100.00;98039.38;5056989;28;19924;-80
2022/08/16 00:08:03;;;;;;;;;;;;;;;23.79;100.00;98030.56;5056753;28;20026;-80
2022/08/16 00:10:32;;;;;;;;;;;;;;;23.80;100.00;98034.94;5074397;28;19974;-80
2022/08/16 00:12:59;;;;;;;;;;;;;;;23.89;100.00;98045.97;5073266;28;19924;-80
2022/08/16 00:15:35;;;;;;;;;;;;;;;23.88;100.00;98044.44;5073440;28;19924;-80
2022/08/16 00:18:03;;;;;;;;;;;;;;;23.61;100.00;98043.47;5074626;28;20287;-80
2022/08/16 00:20:31;;;;;;;;;;;;;;;23.39;100.00;98040.84;5056538;28;19931;-80
2022/08/16 00:22:59;;;;;;;;;;;;;;;23.62;100.00;98033.59;5073344;28;19924;-80
2022/08/16 00:25:51;;;;;;;;;;;;;;;23.71;100.00;98035.31;5056972;28;20379;-80
2022/08/16 00:28:20;;;;;;;;;;;;;;;23.69;100.00;98033.00;5056567;28;19931;-80
2022/08/16 00:30:47;;;;;;;;;;;;;;;22.91;100.00;98038.72;5072782;28;19986;-80
2022/08/16 00:33:15;;;;;;;;;;;;;;;23.04;100.00;98043.78;5073130;28;20392;-79
2022/08/16 00:35:42;;;;;;;;;;;;;;;23.23;100.00;98046.72;5073037;28;19924;-80
2022/08/16 00:38:09;;;;;;;;;;;;;;;23.24;100.00;98046.19;5073054;28;19932;-80
2022/08/16 00:40:37;;;;;;;;;;;;;;;23.23;100.00;98043.84;5056646;28;20303;-80
2022/08/16 00:43:26;;;;;;;;;;;;;;;22.60;100.00;98039.22;5039749;28;19928;-80
2022/08/16 00:46:11;;;;;;;;;;;;;;;22.22;100.00;98042.31;5056483;28;19931;-80
2022/08/16 00:48:39;;;;;;;;;;;;;;;22.76;100.00;98041.19;5056177;28;19967;-80
2022/08/16 00:51:06;;;;;;;;;;;;;;;22.47;100.00;98036.19;5056925;28;20027;-80
2022/08/16 00:53:34;;;;;;;;;;;;;;;22.90;100.00;98031.47;5056379;28;19931;-80
2022/08/16 00:56:04;;;;;;;;;;;;;;;22.85;100.00;98026.63;5072963;28;19924;-80
2022/08/16 00:58:34;;;;;;;;;;;;;;;22.80;100.00;98027.41;5072750;28;19924;-80
2022/08/16 01:01:02;;;;;;;;;;;;;;;22.65;100.00;98026.25;5072570;28;19930;-80
2022/08/16 01:03:29;;;;;;;;;;;;;;;22.74;100.00;98023.84;5056430;28;19925;-80
2022/08/16 01:05:58;;;;;;;;;;;;;;;22.72;100.00;98022.81;5074317;28;19928;-80
2022/08/16 01:08:25;;;;;;;;;;;;;;;22.73;100.00;98021.53;5076344;28;20303;-80
2022/08/16 01:10:54;;;;;;;;;;;;;;;22.87;100.00;98026.06;5077103;28;19925;-80
2022/08/16 01:13:27;;;;;;;;;;;;;;;22.26;100.00;98029.38;5076354;28;20292;-80
2022/08/16 01:16:20;;;;;;;;;;;;;;;22.18;100.00;98036.91;5059910;28;19960;-80
2022/08/16 01:18:55;;;;;;;;;;;;;;;22.31;100.00;98031.38;5074577;28;20017;-80
2022/08/16 01:21:37;;;;;;;;;;;;;;;22.53;100.00;98027.63;5059838;28;20063;-80
2022/08/16 01:24:10;;;;;;;;;;;;;;;22.49;100.00;98024.28;5059547;28;20295;-80
2022/08/16 01:26:39;;;;;;;;;;;;;;;22.50;100.00;98029.47;5075913;28;20330;-80
2022/08/16 01:29:09;;;;;;;;;;;;;;;22.44;100.00;98027.94;5076194;28;20391;-80
2022/08/16 01:31:37;;;;;;;;;;;;;;;22.21;100.00;98038.69;5059598;28;20426;-80
2022/08/16 01:34:04;;;;;;;;;;;;;;;22.19;100.00;98041.28;5076572;28;19928;-80
2022/08/16 01:36:33;;;;;;;;;;;;;;;22.06;100.00;98038.25;5059828;28;19925;-80
2022/08/16 01:39:06;;;;;;;;;;;;;;;21.39;100.00;98036.97;5076171;28;19924;-80
2022/08/16 01:41:34;;;;;;;;;;;;;;;21.88;100.00;98055.16;5059364;28;19960;-80
2022/08/16 01:44:02;;;;;;;;;;;;;;;21.91;100.00;98054.09;5075604;28;19967;-80
2022/08/16 01:46:32;;;;;;;;;;;;;;;21.86;100.00;98058.53;5075897;28;19924;-80
2022/08/16 01:49:13;;;;;;;;;;;;;;;22.15;100.00;98043.66;5059580;28;19924;-80
2022/08/16 01:51:41;;;;;;;;;;;;;;;22.40;100.00;98045.28;5043234;28;20401;-80
2022/08/16 01:54:09;;;;;;;;;;;;;;;22.33;100.00;98051.56;5059220;28;19928;-80
2022/08/16 01:56:43;;;;;;;;;;;;;;;22.18;100.00;98050.34;5059031;28;19970;-80
2022/08/16 01:59:13;;;;;;;;;;;;;;;21.73;100.00;98043.31;5092494;28;20355;-80
2022/08/16 02:01:41;;;;;;;;;;;;;;;21.99;100.00;98058.72;5076172;28;19971;-80
2022/08/16 02:04:09;;;;;;;;;;;;;;;21.29;100.00;98055.59;5109925;28;19929;-80
2022/08/16 02:06:39;;;;;;;;;;;;;;;20.98;100.00;98059.50;5059045;28;20471;-80
2022/08/16 02:09:08;;;;;;;;;;;;;;;21.32;100.00;98054.56;5042647;28;19931;-79
2022/08/16 02:11:36;;;;;;;;;;;;;;;21.14;100.00;98060.78;5059082;28;20303;-80
2022/08/16 02:14:04;;;;;;;;;;;;;;;20.94;100.00;98072.38;5042298;28;20021;-80
2022/08/16 02:16:35;;;;;;;;;;;;;;;21.17;100.00;98062.59;5076647;28;19931;-79
2022/08/16 02:19:02;;;;;;;;;;;;;;;21.30;100.00;98057.13;5074873;28;20375;-80
2022/08/16 02:21:29;;;;;;;;;;;;;;;21.39;100.00;98054.00;5075562;28;19928;-79
2022/08/16 02:23:57;;;;;;;;;;;;;;;21.50;100.00;98059.66;5075493;28;19963;-80
2022/08/16 02:26:25;;;;;;;;;;;;;;;21.38;100.00;98055.31;5075078;28;19925;-80
2022/08/16 02:28:52;;;;;;;;;;;;;;;20.82;100.00;98068.00;5075437;28;20402;-80
2022/08/16 02:31:20;;;;;;;;;;;;;;;20.50;100.00;98061.78;5058684;28;19958;-80
2022/08/16 02:33:47;;;;;;;;;;;;;;;20.82;100.00;98068.00;5075277;28;19931;-80
2022/08/16 02:36:27;;;;;;;;;;;;;;;20.95;100.00;98051.25;5075225;28;19924;-80
2022/08/16 02:38:55;;;;;;;;;;;;;;;21.09;100.00;98050.97;5058565;28;20361;-80
2022/08/16 02:41:22;;;;;;;;;;;;;;;21.13;100.00;98042.16;5074633;28;20398;-80
2022/08/16 02:43:49;;;;;;;;;;;;;;;21.12;100.00;98043.47;5058545;28;20013;-80
2022/08/16 02:46:17;;;;;;;;;;;;;;;21.22;100.00;98041.91;5092120;28;20328;-80
2022/08/16 02:48:44;;;;;;;;;;;;;;;20.80;100.00;98048.66;5075028;28;19929;-80
2022/08/16 02:51:11;;;;;;;;;;;;;;;21.20;100.00;98042.41;5074826;28;20454;-80
2022/08/16 02:53:41;;;;;;;;;;;;;;;21.27;100.00;98039.06;5058251;28;20356;-80
2022/08/16 02:56:11;;;;;;;;;;;;;;;21.36;100.00;98046.53;5057921;28;19946;-80
2022/08/16 02:58:38;;;;;;;;;;;;;;;21.62;100.00;98038.44;5058044;28;19924;-80
2022/08/16 03:01:05;;;;;;;;;;;;;;;21.80;100.00;98042.78;5074568;28;20354;-80
2022/08/16 03:03:35;;;;;;;;;;;;;;;21.74;100.00;98034.28;5057743;28;19925;-80
2022/08/16 03:06:03;;;;;;;;;;;;;;;21.08;100.00;98040.13;5075121;28;19924;-80
2022/08/16 03:08:30;;;;;;;;;;;;;;;21.20;100.00;98042.41;5075634;28;19974;-80
2022/08/16 03:10:58;;;;;;;;;;;;;;;21.64;100.00;98041.53;5108029;28;20019;-80
2022/08/16 03:13:26;;;;;;;;;;;;;;;21.98;100.00;98051.50;5041444;28;19931;-80
2022/08/16 03:15:53;;;;;;;;;;;;;;;21.71;100.00;98041.00;5091171;28;19925;-80
2022/08/16 03:18:20;;;;;;;;;;;;;;;21.95;100.00;98037.53;5057531;28;19929;-80
2022/08/16 03:20:48;;;;;;;;;;;;;;;21.94;100.00;98048.16;5057638;28;20292;-80
2022/08/16 03:23:15;;;;;;;;;;;;;;;21.92;100.00;98047.91;5057468;28;20015;-80
2022/08/16 03:25:42;;;;;;;;;;;;;;;21.22;100.00;98056.09;5073374;28;19968;-80
2022/08/16 03:28:09;;;;;;;;;;;;;;;20.93;100.00;98051.72;5074133;28;19932;-80
2022/08/16 03:30:37;;;;;;;;;;;;;;;21.49;100.00;98052.44;5057860;28;19925;-80
2022/08/16 03:33:07;;;;;;;;;;;;;;;21.59;100.00;98050.84;5073949;28;19925;-80
2022/08/16 03:35:43;;;;;;;;;;;;;;;21.86;100.00;98050.00;5075217;28;19932;-80
2022/08/16 03:38:25;;;;;;;;;;;;;;;21.94;100.00;98053.06;5057342;28;19924;-80
2022/08/16 03:40:54;;;;;;;;;;;;;;;21.97;100.00;98052.78;5073600;28;19931;-81
2022/08/16 03:43:25;;;;;;;;;;;;;;;21.33;100.00;98047.56;5074089;28;19931;-80
2022/08/16 03:45:54;;;;;;;;;;;;;;;20.95;100.00;98056.91;5057150;28;20295;-80
2022/08/16 03:48:25;;;;;;;;;;;;;;;21.44;100.00;98050.38;5056974;28;19924;-80
2022/08/16 03:50:52;;;;;;;;;;;;;;;21.76;100.00;98054.44;5056892;28;19933;-80
2022/08/16 03:53:20;;;;;;;;;;;;;;;21.47;100.00;98051.41;5073410;28;19932;-80
2022/08/16 03:55:48;;;;;;;;;;;;;;;21.85;100.00;98039.16;5057019;28;20287;-80
2022/08/16 03:58:16;;;;;;;;;;;;;;;22.23;100.00;98046.72;5073860;28;19999;-80
2022/08/16 04:00:43;;;;;;;;;;;;;;;22.42;100.00;98039.84;5073512;28;19924;-80
2022/08/16 04:03:16;;;;;;;;;;;;;;;22.22;100.00;98043.06;5057014;28;19924;-80
2022/08/16 04:05:46;;;;;;;;;;;;;;;22.19;100.00;98046.22;5073504;28;19924;-80
2022/08/16 04:08:20;;;;;;;;;;;;;;;22.47;100.00;98044.75;5073141;28;19925;-80
2022/08/16 04:10:54;;;;;;;;;;;;;;;22.38;100.00;98038.59;5073326;28;19928;-80
2022/08/16 04:13:23;;;;;;;;;;;;;;;22.56;100.00;98044.44;5090088;28;19925;-80
2022/08/16 04:15:51;;;;;;;;;;;;;;;22.41;100.00;98049.69;5073142;28;20326;-80
2022/08/16 04:18:22;;;;;;;;;;;;;;;23.02;100.00;98050.00;5073520;28;19924;-80
2022/08/16 04:20:53;;;;;;;;;;;;;;;23.75;100.00;98052.91;5055301;28;19978;-80
2022/08/16 04:23:24;;;;;;;;;;;;;;;20.91;100.00;98064.91;5055418;28;19924;-80
2022/08/16 04:25:53;;;;;;;;;;;;;;;20.45;100.00;98073.13;5055228;28;19928;-80
2022/08/16 04:28:20;;;;;;;;;;;;;;;20.35;100.00;98080.34;5072523;28;19935;-80
2022/08/16 04:30:47;;;;;;;;;;;;;;;20.65;100.00;98081.41;5072718;28;19974;-80
2022/08/16 04:33:15;;;;;;;;;;;;;;;20.68;100.00;98078.31;5072419;28;19924;-80
2022/08/16 04:35:42;;;;;;;;;;;;;;;20.40;100.00;98079.56;5055853;28;19924;-80
2022/08/16 04:38:09;;;;;;;;;;;;;;;20.28;100.00;98084.44;5055709;28;20414;-80
2022/08/16 04:40:40;;;;;;;;;;;;;;;20.68;100.00;98086.84;5056100;28;20031;-80
2022/08/16 04:43:08;;;;;;;;;;;;;;;20.64;100.00;98096.91;5072962;28;19924;-80
2022/08/16 04:45:37;;;;;;;;;;;;;;;20.02;100.00;98097.22;5089988;28;19925;-80
2022/08/16 04:48:09;;;;;;;;;;;;;;;20.03;100.00;98110.91;5089785;28;19981;-79
2022/08/16 04:50:58;;;;;;;;;;;;;;;20.40;100.00;98105.09;5076238;28;19939;-79
2022/08/16 04:53:32;;;;;;;;;;;;;;;20.76;100.00;98104.13;5072898;28;19925;-80
2022/08/16 04:56:00;;;;;;;;;;;;;;;20.87;100.00;98104.13;5072812;28;19925;-80
2022/08/16 04:58:27;;;;;;;;;;;;;;;20.31;100.00;98108.19;5072950;28;19925;-80
2022/08/16 05:00:57;;;;;;;;;;;;;;;20.58;100.00;98110.28;5056139;28;19931;-79
2022/08/16 05:03:27;;;;;;;;;;;;;;;20.92;100.00;98111.88;5056619;28;19925;-80
2022/08/16 05:05:55;;;;;;;;;;;;;;;21.01;100.00;98114.47;5055922;28;19974;-80
2022/08/16 05:08:23;;;;;;;;;;;;;;;21.25;100.00;98112.66;5055864;28;19924;-80
2022/08/16 05:10:58;;;;;;;;;;;;;;;21.29;100.00;98121.72;5040407;28;20379;-80
2022/08/16 05:13:27;;;;;;;;;;;;;;;21.26;100.00;98113.44;5089952;28;19924;-80
2022/08/16 05:15:57;;;;;;;;;;;;;;;21.30;100.00;98113.94;5071275;28;19925;-80
2022/08/16 05:18:26;;;;;;;;;;;;;;;21.30;100.00;98119.63;5056060;28;19932;-80
2022/08/16 05:20:54;;;;;;;;;;;;;;;20.82;100.00;98133.28;5072311;28;19924;-80
2022/08/16 05:23:22;;;;;;;;;;;;;;;21.10;100.00;98125.56;5073836;28;19932;-80
2022/08/16 05:25:50;;;;;;;;;;;;;;;21.29;100.00;98129.44;5104020;28;19928;-80
2022/08/16 05:28:18;;;;;;;;;;;;;;;21.22;100.00;98132.78;5072663;28;19924;-80
2022/08/16 05:30:51;;;;;;;;;;;;;;;21.07;100.00;98143.66;5090301;28;20291;-80
2022/08/16 05:33:25;;;;;;;;;;;;;;;21.27;100.00;98155.53;5072474;28;19947;-80
2022/08/16 05:35:54;;;;;;;;;;;;;;;21.35;100.00;98147.25;5072393;28;20323;-80
2022/08/16 05:38:36;;;;;;;;;;;;;;;21.44;100.00;98141.31;5072515;28;19924;-80
2022/08/16 05:41:06;;;;;;;;;;;;;;;21.16;100.00;98144.16;5089334;28;19997;-80
2022/08/16 05:43:40;;;;;;;;;;;;;;;20.79;100.00;98148.50;5072548;28;20015;-79
2022/08/16 05:46:07;;;;;;;;;;;;;;;20.60;100.00;98144.63;5055681;28;20287;-80
2022/08/16 05:48:35;;;;;;;;;;;;;;;20.55;100.00;98145.38;5072176;28;19924;-80
2022/08/16 05:51:06;;;;;;;;;;;;;;;20.42;100.00;98142.22;5105608;28;19928;-79
2022/08/16 05:53:33;;;;;;;;;;;;;;;20.34;100.00;98136.28;5058270;28;19924;-79
2022/08/16 05:56:06;;;;;;;;;;;;;;;20.52;100.00;98146.41;5059034;28;19931;-79
2022/08/16 05:58:37;;;;;;;;;;;;;;;20.77;100.00;98145.41;5076162;28;19931;-80
2022/08/16 06:01:06;;;;;;;;;;;;;;;20.89;100.00;98146.97;5059097;28;19925;-79
2022/08/16 06:03:35;;;;;;;;;;;;;;;20.74;100.00;98144.38;5058491;28;19931;-80
2022/08/16 06:06:09;;;;;;;;;;;;;;;20.14;100.00;98144.22;5058891;28;20027;-80
2022/08/16 06:08:37;;;;;;;;;;;;;;;20.09;100.00;98142.88;5075715;28;19924;-80
2022/08/16 06:11:06;;;;;;;;;;;;;;;20.31;100.00;98136.53;5075497;28;19924;-80
2022/08/16 06:13:36;;;;;;;;;;;;;;;20.26;100.00;98146.59;5092474;28;19972;-79
2022/08/16 06:16:04;;;;;;;;;;;;;;;20.26;100.00;98151.47;5075398;28;20284;-80
2022/08/16 06:18:32;;;;;;;;;;;;;;;20.06;100.00;98148.78;5075125;28;19931;-79
2022/08/16 06:20:59;;;;;;;;;;;;;;;20.13;100.00;98154.00;5058914;28;19931;-80
2022/08/16 06:23:26;;;;;;;;;;;;;;;20.51;100.00;98156.97;5075266;28;20061;-79
2022/08/16 06:25:56;;;;;;;;;;;;;;;20.03;100.00;98156.25;5076052;28;20284;-79
2022/08/16 06:28:28;;;;;;;;;;;;;;;20.13;100.00;98154.78;5075255;28;19925;-79
2022/08/16 06:30:55;;;;;;;;;;;;;;;20.21;100.00;98155.06;5075105;28;19925;-79
2022/08/16 06:33:23;;;;;;;;;;;;;;;20.38;100.00;98164.41;5075052;28;19947;-80
2022/08/16 06:35:52;;;;;;;;;;;;;;;20.14;100.00;98155.56;5075224;28;19932;-80
2022/08/16 06:38:22;;;;;;;;;;;;;;;20.25;100.00;98161.28;5092218;28;20058;-80
2022/08/16 06:40:49;;;;;;;;;;;;;;;20.37;100.00;98166.47;5108789;28;20421;-79
2022/08/16 06:43:19;;;;;;;;;;;;;;;20.40;100.00;98170.34;5074769;28;20014;-79
2022/08/16 06:45:49;;;;;;;;;;;;;;;20.97;100.00;98162.25;5075952;28;19982;-79
2022/08/16 06:48:20;;;;;;;;;;;;;;;21.60;100.00;98160.41;5057592;28;20357;-79
2022/08/16 06:50:48;;;;;;;;;;;;;;;21.38;100.00;98163.28;5057891;28;19924;-79
2022/08/16 06:53:16;;;;;;;;;;;;;;;21.58;100.00;98157.31;5058139;28;19982;-80
2022/08/16 06:56:05;;;;;;;;;;;;;;;21.88;100.00;98158.31;5074507;28;19925;-80
2022/08/16 06:58:45;;;;;;;;;;;;;;;22.00;100.00;98145.59;5059650;28;19928;-80
2022/08/16 07:01:17;;;;;;;;;;;;;;;21.20;100.00;98146.75;5057345;28;19929;-81
2022/08/16 07:03:50;;;;;;;;;;;;;;;21.31;100.00;98143.94;5057470;28;19942;-81
2022/08/16 07:06:18;;;;;;;;;;;;;;;21.29;100.00;98132.28;5058046;28;20356;-82
2022/08/16 07:08:46;;;;;;;;;;;;;;;22.04;100.00;98134.72;5057350;28;20376;-81
2022/08/16 07:11:14;;;;;;;;;;;;;;;23.10;100.00;98127.09;5074308;28;19925;-81
2022/08/16 07:13:41;;;;;;;;;;;;;;;24.61;100.00;98128.59;5074755;28;20253;-82
2022/08/16 07:16:29;;;;;;;;;;;;;;;25.96;100.00;98116.69;5073434;28;19924;-82
2022/08/16 07:18:57;;;;;;;;;;;;;;;26.27;100.00;98110.09;5090631;28;19924;-81
2022/08/16 07:21:28;;;;;;;;;;;;;;;25.71;100.00;98115.38;5073947;28;19924;-81
2022/08/16 07:23:55;;;;;;;;;;;;;;;26.23;100.00;98115.38;5074041;28;20387;-82
2022/08/16 07:26:24;;;;;;;;;;;;;;;25.45;100.00;98111.69;5074004;28;20054;-82
2022/08/16 07:28:54;;;;;;;;;;;;;;;25.08;100.00;98115.44;5041033;28;19925;-82
2022/08/16 07:31:22;;;;;;;;;;;;;;;24.62;100.00;98119.47;5056475;28;19931;-83
2022/08/16 07:33:50;;;;;;;;;;;;;;;25.01;100.00;98129.56;5090843;28;19928;-82
2022/08/16 07:36:21;;;;;;;;;;;;;;;25.53;100.00;98138.31;5057195;28;19928;-83
2022/08/16 07:38:51;;;;;;;;;;;;;;;25.19;100.00;98132.38;5056197;28;19932;-83
2022/08/16 07:41:19;;;;;;;;;;;;;;;26.10;100.00;98135.44;5073488;28;19925;-82
2022/08/16 07:43:52;;;;;;;;;;;;;;;25.30;100.00;98140.00;5073616;28;19925;-82
2022/08/16 07:46:20;;;;;;;;;;;;;;;25.86;100.00;98146.28;5073422;28;19936;-82
2022/08/16 07:48:48;;;;;;;;;;;;;;;25.67;100.00;98143.53;5056713;28;19928;-82
2022/08/16 07:51:16;;;;;;;;;;;;;;;25.72;100.00;98151.22;5090250;28;20118;-82
2022/08/16 07:53:46;;;;;;;;;;;;;;;25.34;100.00;98146.97;5073126;28;19925;-83
2022/08/16 07:56:13;;;;;;;;;;;;;;;25.22;100.00;98154.16;5073317;28;19924;-82
2022/08/16 07:58:42;;;;;;;;;;;;;;;25.33;100.00;98161.78;5056748;28;19935;-82
2022/08/16 08:01:14;;;;;;;;;;;;;;;25.47;100.00;98163.38;5056397;28;19924;-82
2022/08/16 08:03:46;;;;;;;;;;;;;;;24.86;100.00;98172.13;5073251;28;19931;-82
2022/08/16 08:06:16;;;;;;;;;;;;;;;26.07;100.00;98162.28;5073502;28;19931;-82
2022/08/16 08:08:43;;;;;;;;;;;;;;;25.49;100.00;98170.09;5056729;28;19925;-82
2022/08/16 08:11:11;;;;;;;;;;;;;;;25.39;100.00;98174.69;5106734;28;19929;-83
2022/08/16 08:13:41;;;;;;;;;;;;;;;25.41;100.00;98166.34;5056505;28;19929;-82
2022/08/16 08:16:13;;;;;;;;;;;;;;;24.72;100.00;98174.91;5072293;28;20023;-81
2022/08/16 08:18:43;;;;;;;;;;;;;;;24.81;100.00;98167.28;5089917;28;19944;-79
2022/08/16 08:21:11;;;;;;;;;;;;;;;24.48;100.00;98177.03;5072779;28;19964;-79
2022/08/16 08:23:38;;;;;;;;;;;;;;;25.05;100.00;98179.38;5055749;28;20364;-79
2022/08/16 08:26:06;;;;;;;;;;;;;;;24.45;100.00;98178.09;5055693;28;19925;-80
2022/08/16 08:28:36;;;;;;;;;;;;;;;24.83;100.00;98179.69;5072455;28;19931;-79
2022/08/16 08:31:05;;;;;;;;;;;;;;;25.27;100.00;98184.75;5038855;28;20011;-79
2022/08/16 08:33:37;;;;;;;;;;;;;;;24.23;100.00;98190.59;5072493;28;19932;-79
2022/08/16 08:36:06;;;;;;;;;;;;;;;24.63;100.00;98188.78;5072361;28;19995;-79
2022/08/16 08:38:36;;;;;;;;;;;;;;;24.55;100.00;98193.56;5056103;28;20302;-79
2022/08/16 08:41:05;;;;;;;;;;;;;;;24.51;100.00;98191.00;5073168;28;20272;-80
2022/08/16 08:43:33;;;;;;;;;;;;;;;24.81;100.00;98201.56;5055954;28;19924;-79
2022/08/16 08:46:02;;;;;;;;;;;;;;;25.64;100.00;98196.09;5106321;28;20037;-79
2022/08/16 08:48:30;;;;;;;;;;;;;;;24.99;100.00;98204.41;5072580;28;19931;-79
2022/08/16 08:50:58;;;;;;;;;;;;;;;24.33;100.00;98199.53;5072548;28;19925;-79
2022/08/16 08:53:25;;;;;;;;;;;;;;;24.36;100.00;98204.97;5072555;28;19948;-79
2022/08/16 08:55:55;;;;;;;;;;;;;;;24.29;100.00;98210.50;5072453;28;20031;-79
2022/08/16 08:58:23;;;;;;;;;;;;;;;23.67;100.00;98215.28;5055332;28;19978;-79
2022/08/16 09:01:04;;;;;;;;;;;;;;;24.10;100.00;98223.94;5072444;28;20283;-79
2022/08/16 09:03:32;;;;;;;;;;;;;;;23.55;100.00;98215.91;5072305;28;19936;-79
2022/08/16 09:05:59;;;;;;;;;;;;;;;24.08;100.00;98229.41;5072399;28;20018;-79
2022/08/16 09:08:30;;;;;;;;;;;;;;;23.84;100.00;98227.28;5072403;28;19924;-79
2022/08/16 09:11:02;;;;;;;;;;;;;;;24.04;100.00;98228.91;5072249;28;19924;-79
2022/08/16 09:13:31;;;;;;;;;;;;;;;24.49;100.00;98230.75;5072170;28;19925;-79
2022/08/16 09:15:59;;;;;;;;;;;;;;;24.29;100.00;98225.56;5055291;28;19924;-79
2022/08/16 09:18:28;;;;;;;;;;;;;;;24.26;100.00;98240.13;5072331;28;19924;-79
2022/08/16 09:20:55;;;;;;;;;;;;;;;24.99;100.00;98238.72;5072227;28;19924;-79
2022/08/16 09:23:24;;;;;;;;;;;;;;;24.59;100.00;98239.72;5072246;28;19960;-79
2022/08/16 09:25:52;;;;;;;;;;;;;;;23.94;100.00;98241.97;5072029;28;19929;-79
2022/08/16 09:28:19;;;;;;;;;;;;;;;23.78;100.00;98246.53;5075647;28;19963;-79
2022/08/16 09:30:52;;;;;;;;;;;;;;;23.85;100.00;98256.59;5076122;28;20015;-79
2022/08/16 09:33:19;;;;;;;;;;;;;;;23.77;100.00;98259.25;5075313;28;20371;-79
2022/08/16 09:35:47;;;;;;;;;;;;;;;23.49;100.00;98260.78;5074771;28;20383;-79
2022/08/16 09:38:15;;;;;;;;;;;;;;;23.44;100.00;98267.28;5074714;28;19925;-79
2022/08/16 09:40:43;;;;;;;;;;;;;;;23.62;100.00;98266.63;5075744;28;19928;-79
2022/08/16 09:43:11;;;;;;;;;;;;;;;23.87;100.00;98262.53;5074876;28;19974;-79
2022/08/16 09:45:47;;;;;;;;;;;;;;;23.30;100.00;98271.28;5075799;28;19924;-79
2022/08/16 09:48:15;;;;;;;;;;;;;;;23.16;100.00;98258.16;5077227;28;19924;-83
2022/08/16 09:50:43;;;;;;;;;;;;;;;23.05;100.00;98259.75;5077036;28;19928;-80
2022/08/16 09:53:15;;;;;;;;;;;;;;;23.12;100.00;98261.28;5075847;28;19945;-81
2022/08/16 09:55:45;;;;;;;;;;;;;;;23.44;100.00;98258.75;5075684;28;20026;-82
2022/08/16 09:58:12;;;;;;;;;;;;;;;24.12;100.00;98253.50;5056690;28;19928;-82
2022/08/16 10:00:43;;;;;;;;;;;;;;;24.22;100.00;98246.13;5075468;28;19928;-82
2022/08/16 10:03:11;;;;;;;;;;;;;;;24.40;100.00;98262.50;5075322;28;19983;-82
2022/08/16 10:05:38;;;;;;;;;;;;;;;24.58;100.00;98255.31;5074949;28;19924;-83
2022/08/16 10:08:06;;;;;;;;;;;;;;;25.28;100.00;98254.88;5074711;28;19925;-83
2022/08/16 10:10:34;;;;;;;;;;;;;;;25.33;100.00;98262.66;5057917;28;20287;-80
2022/08/16 10:13:11;;;;;;;;;;;;;;;25.49;100.00;98258.75;5075415;28;19924;-79
2022/08/16 10:15:39;;;;;;;;;;;;;;;25.21;100.00;98258.38;5075307;28;19924;-79
2022/08/16 10:18:08;;;;;;;;;;;;;;;24.88;100.00;98260.94;5075056;28;19932;-79
2022/08/16 10:20:37;;;;;;;;;;;;;;;24.56;100.00;98253.00;5076383;28;19967;-79
2022/08/16 10:23:05;;;;;;;;;;;;;;;24.72;100.00;98260.59;5075101;28;20271;-79
2022/08/16 10:25:35;;;;;;;;;;;;;;;24.45;100.00;98260.91;5075078;28;20375;-79
2022/08/16 10:28:02;;;;;;;;;;;;;;;24.74;100.00;98263.72;5073881;28;20407;-79
2022/08/16 10:30:43;;;;;;;;;;;;;;;24.56;100.00;98255.84;5059026;28;20295;-79
2022/08/16 10:33:12;;;;;;;;;;;;;;;25.11;100.00;98247.88;5073874;28;19924;-79
2022/08/16 10:35:40;;;;;;;;;;;;;;;24.97;100.00;98246.25;5075065;28;19925;-79
2022/08/16 10:38:07;;;;;;;;;;;;;;;24.97;100.00;98238.47;5073112;28;19925;-79
2022/08/16 10:40:35;;;;;;;;;;;;;;;24.28;100.00;98246.06;5073563;28;19924;-79
2022/08/16 10:43:02;;;;;;;;;;;;;;;24.57;100.00;98248.03;5073530;28;20157;-79
2022/08/16 10:45:30;;;;;;;;;;;;;;;25.29;100.00;98242.16;5074697;28;19931;-79
2022/08/16 10:47:57;;;;;;;;;;;;;;;25.67;100.00;98252.22;5074692;28;19925;-79
2022/08/16 10:50:25;;;;;;;;;;;;;;;25.31;100.00;98253.03;5073482;28;19925;-79
2022/08/16 10:52:52;;;;;;;;;;;;;;;25.64;100.00;98241.09;5073482;28;19928;-79
2022/08/16 10:55:21;;;;;;;;;;;;;;;25.75;100.00;98246.66;5056983;28;19960;-79
2022/08/16 10:58:05;;;;;;;;;;;;;;;25.54;100.00;98246.44;5074382;28;19932;-79
2022/08/16 11:00:33;;;;;;;;;;;;;;;25.88;100.00;98252.38;5074606;28;20485;-79
2022/08/16 11:03:04;;;;;;;;;;;;;;;25.83;100.00;98253.25;5074238;28;19929;-79
2022/08/16 11:05:32;;;;;;;;;;;;;;;26.34;100.00;98261.19;5073360;28;19924;-79
2022/08/16 11:08:20;;;;;;;;;;;;;;;26.34;100.00;98246.84;5072988;28;19925;-79
2022/08/16 11:10:47;;;;;;;;;;;;;;;26.28;100.00;98249.06;5074107;28;19925;-79
2022/08/16 11:13:29;;;;;;;;;;;;;;;25.68;100.00;98250.91;5073242;28;20393;-79
2022/08/16 11:16:16;;;;;;;;;;;;;;;25.92;100.00;98262.19;5059167;28;19924;-79
2022/08/16 11:19:05;;;;;;;;;;;;;;;26.13;100.00;98268.88;5072772;28;19924;-79
2022/08/16 11:21:32;;;;;;;;;;;;;;;25.92;100.00;98267.91;5072869;28;19935;-79
2022/08/16 11:23:59;;;;;;;;;;;;;;;26.09;100.00;98262.72;5073716;28;19933;-79
2022/08/16 11:26:28;;;;;;;;;;;;;;;25.83;100.00;98276.13;5072585;28;20019;-79
2022/08/16 11:28:56;;;;;;;;;;;;;;;25.35;100.00;98271.47;5073885;28;20361;-79
2022/08/16 11:31:40;;;;;;;;;;;;;;;25.27;100.00;98276.22;5073935;28;20388;-79
2022/08/16 11:34:08;;;;;;;;;;;;;;;25.84;100.00;98275.59;5072707;28;20378;-79
2022/08/16 11:36:36;;;;;;;;;;;;;;;25.68;100.00;98276.66;5072690;28;19970;-79
2022/08/16 11:39:03;;;;;;;;;;;;;;;25.63;100.00;98273.88;5072032;28;19924;-79
2022/08/16 11:41:33;;;;;;;;;;;;;;;25.62;100.00;98275.97;5073618;28;19929;-79
2022/08/16 11:44:00;;;;;;;;;;;;;;;25.84;100.00;98275.59;5073671;28;20303;-79
2022/08/16 11:46:27;;;;;;;;;;;;;;;26.33;100.00;98276.81;5072507;28;20387;-79
2022/08/16 11:48:54;;;;;;;;;;;;;;;26.08;100.00;98281.19;5073397;28;19931;-79
2022/08/16 11:51:21;;;;;;;;;;;;;;;26.09;100.00;98274.16;5072531;28;20330;-79
2022/08/16 11:53:49;;;;;;;;;;;;;;;25.89;100.00;98280.47;5073292;28;19924;-79
2022/08/16 11:56:16;;;;;;;;;;;;;;;25.47;100.00;98274.91;5072069;28;19924;-79
2022/08/16 11:58:43;;;;;;;;;;;;;;;25.02;100.00;98280.50;5073150;28;19932;-79
2022/08/16 12:01:10;;;;;;;;;;;;;;;25.00;100.00;98285.97;5072919;28;20389;-79
2022/08/16 12:03:37;;;;;;;;;;;;;;;25.13;100.00;98274.59;5073161;28;20394;-79
2022/08/16 12:06:09;;;;;;;;;;;;;;;25.38;100.00;98281.03;5072912;28;19975;-79
2022/08/16 12:08:37;;;;;;;;;;;;;;;26.02;100.00;98277.66;5073959;28;19924;-79
2022/08/16 12:11:05;;;;;;;;;;;;;;;26.35;100.00;98285.63;5056212;28;19925;-79
2022/08/16 12:13:32;;;;;;;;;;;;;;;26.11;100.00;98280.09;5074455;28;20359;-81
2022/08/16 12:16:01;;;;;;;;;;;;;;;26.27;100.00;98289.69;5072701;28;19924;-81
2022/08/16 12:18:28;;;;;;;;;;;;;;;25.90;100.00;98298.41;5073243;28;20012;-81
2022/08/16 12:20:55;;;;;;;;;;;;;;;25.40;100.00;98290.59;5071712;28;20379;-82
2022/08/16 12:23:22;;;;;;;;;;;;;;;25.00;100.00;98285.97;5055473;28;19931;-81
2022/08/16 12:25:49;;;;;;;;;;;;;;;25.93;100.00;98292.34;5073368;28;19924;-81
2022/08/16 12:28:17;;;;;;;;;;;;;;;25.87;100.00;98294.53;5072834;28;19925;-81
2022/08/16 12:30:45;;;;;;;;;;;;;;;26.34;100.00;98292.69;5072216;28;19924;-81
2022/08/16 12:33:15;;;;;;;;;;;;;;;26.19;100.00;98292.44;5072110;28;20390;-81
2022/08/16 12:35:43;;;;;;;;;;;;;;;25.64;100.00;98299.06;5071902;28;20005;-80
2022/08/16 12:38:11;;;;;;;;;;;;;;;25.87;100.00;98305.22;5055900;28;19924;-80
2022/08/16 12:40:40;;;;;;;;;;;;;;;25.71;100.00;98304.16;5074011;28;19931;-80
2022/08/16 12:43:08;;;;;;;;;;;;;;;25.82;100.00;98309.72;5072744;28;19978;-80
2022/08/16 12:45:39;;;;;;;;;;;;;;;26.41;100.00;98306.38;5074213;28;19925;-81
2022/08/16 12:50:58;;;;;;;;;;;;;;;26.68;100.00;98306.38;5072481;28;19924;-81